Time;durP1;ratioP1;P1;durP2;ratioP2;P2;SDS_P1;SDS_P2;PMS_P1;PMS_P2;Temp;Humidity;BMP_temperature;BMP_pressure;BME280_temperature;BME280_humidity;BME280_pressure;Samples;Min_cycle;Max_cycle;Signal;HPM_P1;HPM_P2
2022/08/18 00:00:44;;;;;;;6.10;5.32;;;;;;;;;;5095728;28;20024;-80
2022/08/18 00:03:10;;;;;;;8.27;5.35;;;;;;;;;;5095725;28;20028;-80
2022/08/18 00:05:37;;;;;;;7.75;5.30;;;;;;;;;;5095672;28;20020;-81
2022/08/18 00:08:03;;;;;;;6.85;5.03;;;;;;;;;;5095610;28;20024;-80
2022/08/18 00:10:30;;;;;;;6.10;5.50;;;;;;;;;;5094743;28;20479;-81
2022/08/18 00:12:56;;;;;;;7.07;6.00;;;;;;;;;;5095411;28;20031;-79
2022/08/18 00:15:22;;;;;;;6.00;5.30;;;;;;;;;;5094102;28;20028;-78
2022/08/18 00:17:48;;;;;;;5.68;4.70;;;;;;;;;;5095475;28;20016;-78
2022/08/18 00:20:19;;;;;;;5.65;5.15;;;;;;;;;;5095366;28;20032;-79
2022/08/18 00:22:45;;;;;;;8.00;5.43;;;;;;;;;;5094008;28;20426;-79
2022/08/18 00:25:13;;;;;;;6.28;5.60;;;;;;;;;;5095222;28;20376;-79
2022/08/18 00:27:40;;;;;;;6.15;5.10;;;;;;;;;;5095166;28;20016;-81
2022/08/18 00:30:08;;;;;;;6.25;5.68;;;;;;;;;;5096368;28;20468;-82
2022/08/18 00:32:36;;;;;;;5.82;5.22;;;;;;;;;;5095096;28;20035;-81
2022/08/18 00:35:25;;;;;;;5.53;4.90;;;;;;;;;;5095058;28;20028;-81
2022/08/18 00:37:51;;;;;;;5.78;5.05;;;;;;;;;;5094922;28;20406;-80
2022/08/18 00:40:20;;;;;;;8.70;5.53;;;;;;;;;;5094907;28;20040;-82
2022/08/18 00:42:50;;;;;;;6.57;5.68;;;;;;;;;;5094867;28;20391;-83
2022/08/18 00:45:19;;;;;;;8.82;5.47;;;;;;;;;;5094729;28;20077;-82
2022/08/18 00:47:45;;;;;;;5.57;5.03;;;;;;;;;;5094578;28;20376;-81
2022/08/18 00:50:13;;;;;;;8.50;6.00;;;;;;;;;;5094751;28;20031;-80
2022/08/18 00:52:40;;;;;;;7.22;5.55;;;;;;;;;;5094490;28;20028;-81
2022/08/18 00:55:06;;;;;;;6.03;5.43;;;;;;;;;;5094622;28;20032;-82
2022/08/18 00:57:33;;;;;;;5.88;5.18;;;;;;;;;;5094643;28;20027;-80
2022/08/18 01:00:07;;;;;;;6.05;4.80;;;;;;;;;;5094699;28;20034;-82
2022/08/18 01:02:38;;;;;;;6.82;5.25;;;;;;;;;;5094489;28;20019;-82
2022/08/18 01:05:08;;;;;;;6.85;5.88;;;;;;;;;;5094480;28;20191;-81
2022/08/18 01:07:43;;;;;;;6.68;5.18;;;;;;;;;;5093084;28;20421;-81
2022/08/18 01:10:13;;;;;;;7.45;5.28;;;;;;;;;;5094391;28;20023;-80
2022/08/18 01:12:40;;;;;;;8.45;5.32;;;;;;;;;;5092886;28;20032;-81
2022/08/18 01:15:06;;;;;;;5.93;5.43;;;;;;;;;;5094380;28;20020;-80
2022/08/18 01:23:09;;;;;;;6.80;6.10;;;;;;;;;;5094313;28;19911;-80
2022/08/18 01:28:22;;;;;;;8.15;5.95;;;;;;;;;;5094102;28;20597;-81
2022/08/18 01:31:08;;;;;;;5.90;5.22;;;;;;;;;;5094021;28;20053;-81
2022/08/18 01:33:35;;;;;;;6.50;5.68;;;;;;;;;;5093900;28;20517;-83
2022/08/18 01:36:20;;;;;;;6.32;5.72;;;;;;;;;;5094040;28;20027;-82
2022/08/18 01:38:49;;;;;;;8.23;5.50;;;;;;;;;;5092579;28;20035;-82
2022/08/18 01:41:15;;;;;;;7.65;6.35;;;;;;;;;;5093860;28;20081;-83
2022/08/18 01:43:42;;;;;;;6.63;5.45;;;;;;;;;;5093768;28;20467;-81
2022/08/18 01:46:08;;;;;;;5.97;5.40;;;;;;;;;;5093856;28;20028;-80
2022/08/18 01:48:35;;;;;;;6.60;5.97;;;;;;;;;;5093505;28;20512;-84
2022/08/18 01:51:07;;;;;;;6.85;6.00;;;;;;;;;;5092447;28;20020;-81
2022/08/18 01:53:33;;;;;;;7.25;5.72;;;;;;;;;;5093550;28;20028;-83
2022/08/18 01:55:59;;;;;;;8.63;6.18;;;;;;;;;;5093782;28;20055;-83
2022/08/18 01:58:28;;;;;;;6.32;5.25;;;;;;;;;;5093656;28;20028;-81
2022/08/18 02:01:00;;;;;;;8.48;5.55;;;;;;;;;;5092366;28;20394;-80
2022/08/18 02:03:30;;;;;;;8.10;6.30;;;;;;;;;;5093577;28;20052;-81
2022/08/18 02:06:09;;;;;;;6.07;5.47;;;;;;;;;;5093517;28;20020;-83
2022/08/18 02:08:37;;;;;;;6.15;5.55;;;;;;;;;;5093599;28;20031;-83
2022/08/18 02:11:03;;;;;;;7.13;6.43;;;;;;;;;;5093843;28;20026;-83
2022/08/18 02:13:30;;;;;;;7.45;5.63;;;;;;;;;;5093462;28;20070;-82
2022/08/18 02:15:56;;;;;;;5.85;4.97;;;;;;;;;;5093453;28;20028;-81
2022/08/18 02:18:24;;;;;;;13.70;7.10;;;;;;;;;;5093292;28;20424;-84
2022/08/18 02:20:50;;;;;;;8.77;6.50;;;;;;;;;;5093288;28;20032;-81
2022/08/18 02:23:16;;;;;;;13.00;6.40;;;;;;;;;;5093347;28;20027;-82
2022/08/18 02:25:43;;;;;;;11.85;6.95;;;;;;;;;;5092716;28;20024;-79
2022/08/18 02:28:09;;;;;;;17.25;8.25;;;;;;;;;;5093020;28;20091;-83
2022/08/18 02:30:36;;;;;;;8.20;6.40;;;;;;;;;;5093088;28;20024;-84
2022/08/18 02:33:03;;;;;;;6.80;5.97;;;;;;;;;;5092705;28;20387;-81
2022/08/18 02:35:29;;;;;;;8.07;5.60;;;;;;;;;;5097032;28;20028;-81
2022/08/18 02:37:58;;;;;;;9.95;6.05;;;;;;;;;;5096867;28;20035;-82
2022/08/18 02:40:24;;;;;;;11.57;6.55;;;;;;;;;;5097167;28;20053;-82
2022/08/18 02:42:51;;;;;;;7.72;5.65;;;;;;;;;;5097143;28;20024;-81
2022/08/18 02:45:18;;;;;;;8.50;6.88;;;;;;;;;;5097184;28;20028;-84
2022/08/18 02:47:44;;;;;;;7.43;6.15;;;;;;;;;;5096711;28;20079;-84
2022/08/18 02:50:12;;;;;;;8.15;6.10;;;;;;;;;;5097159;28;20498;-84
2022/08/18 02:52:38;;;;;;;10.75;6.68;;;;;;;;;;5096704;28;20092;-80
2022/08/18 02:55:04;;;;;;;10.93;7.40;;;;;;;;;;5095615;28;20032;-84
2022/08/18 02:57:31;;;;;;;9.65;7.55;;;;;;;;;;5096842;28;20056;-82
2022/08/18 02:59:57;;;;;;;8.73;7.75;;;;;;;;;;5096813;28;20047;-82
2022/08/18 03:02:23;;;;;;;10.27;8.68;;;;;;;;;;5096809;28;20538;-82
2022/08/18 03:04:50;;;;;;;11.10;8.10;;;;;;;;;;5096774;28;20024;-83
2022/08/18 03:07:16;;;;;;;10.93;8.13;;;;;;;;;;5096784;28;20062;-83
2022/08/18 03:09:42;;;;;;;11.02;8.68;;;;;;;;;;5096633;28;20024;-82
2022/08/18 03:12:09;;;;;;;13.75;9.43;;;;;;;;;;5096566;28;20035;-81
2022/08/18 03:14:36;;;;;;;11.85;8.90;;;;;;;;;;5095292;28;20020;-83
2022/08/18 03:17:04;;;;;;;13.00;9.05;;;;;;;;;;5096423;28;20041;-80
2022/08/18 03:19:31;;;;;;;11.25;8.45;;;;;;;;;;5096448;28;20085;-81
2022/08/18 03:21:58;;;;;;;13.02;9.27;;;;;;;;;;5096516;28;20422;-81
2022/08/18 03:24:25;;;;;;;10.10;7.75;;;;;;;;;;5096378;28;20028;-81
2022/08/18 03:26:52;;;;;;;10.80;8.45;;;;;;;;;;5096527;28;20023;-83
2022/08/18 03:29:19;;;;;;;12.32;8.23;;;;;;;;;;5096384;28;20107;-83
2022/08/18 03:31:47;;;;;;;11.25;8.40;;;;;;;;;;5094980;28;20462;-83
2022/08/18 03:34:14;;;;;;;12.23;9.52;;;;;;;;;;5096200;28;20110;-82
2022/08/18 03:36:41;;;;;;;20.13;11.05;;;;;;;;;;5096065;28;20024;-82
2022/08/18 03:39:09;;;;;;;15.20;10.95;;;;;;;;;;5096247;28;20051;-82
2022/08/18 03:41:36;;;;;;;13.48;9.57;;;;;;;;;;5096118;28;20096;-83
2022/08/18 03:44:02;;;;;;;17.63;12.02;;;;;;;;;;5095292;28;20027;-82
2022/08/18 03:46:29;;;;;;;17.00;12.65;;;;;;;;;;5095540;28;20028;-83
2022/08/18 03:48:57;;;;;;;16.70;11.40;;;;;;;;;;5095519;28;20061;-80
2022/08/18 03:51:24;;;;;;;14.57;10.25;;;;;;;;;;5095511;28;20375;-81
2022/08/18 03:53:52;;;;;;;13.55;9.43;;;;;;;;;;5094648;28;20036;-81
2022/08/18 03:56:19;;;;;;;18.60;10.98;;;;;;;;;;5095824;28;20024;-82
2022/08/18 03:58:51;;;;;;;17.75;11.25;;;;;;;;;;5095580;28;20028;-81
2022/08/18 04:01:18;;;;;;;16.73;9.82;;;;;;;;;;5095718;28;20020;-81
2022/08/18 04:03:46;;;;;;;14.15;10.57;;;;;;;;;;5095582;28;20089;-81
2022/08/18 04:06:17;;;;;;;13.40;10.48;;;;;;;;;;5095621;28;20027;-82
2022/08/18 04:08:43;;;;;;;18.08;14.65;;;;;;;;;;5095458;28;20016;-82
2022/08/18 04:11:11;;;;;;;11.82;8.93;;;;;;;;;;5095481;28;20020;-82
2022/08/18 04:13:38;;;;;;;18.60;13.65;;;;;;;;;;5095360;28;20032;-83
2022/08/18 04:16:04;;;;;;;19.50;13.60;;;;;;;;;;5095149;28;20056;-83
2022/08/18 04:18:31;;;;;;;10.65;9.23;;;;;;;;;;5095293;28;20416;-82
2022/08/18 04:21:01;;;;;;;14.25;10.93;;;;;;;;;;5095128;28;20398;-83
2022/08/18 04:23:28;;;;;;;13.50;9.05;;;;;;;;;;5095183;28;20383;-82
2022/08/18 04:25:58;;;;;;;10.82;7.75;;;;;;;;;;5095109;28;20051;-82
2022/08/18 04:28:24;;;;;;;10.75;7.55;;;;;;;;;;5095060;28;20046;-83
2022/08/18 04:30:52;;;;;;;8.15;7.28;;;;;;;;;;5095118;28;20028;-82
2022/08/18 04:33:19;;;;;;;9.13;7.22;;;;;;;;;;5095082;28;20024;-82
2022/08/18 04:35:45;;;;;;;7.68;6.75;;;;;;;;;;5095044;28;20031;-83
2022/08/18 04:38:12;;;;;;;8.90;6.95;;;;;;;;;;5094902;28;20028;-83
2022/08/18 04:40:40;;;;;;;8.15;6.72;;;;;;;;;;5093634;28;20031;-83
2022/08/18 04:43:20;;;;;;;35.40;21.00;;;;;;;;;;5094529;28;20107;-83
2022/08/18 04:45:49;;;;;;;51.95;37.10;;;;;;;;;;5086438;28;20039;-83
2022/08/18 04:48:17;;;;;;;48.60;34.92;;;;;;;;;;5086834;28;20071;-82
2022/08/18 04:50:46;;;;;;;26.75;23.92;;;;;;;;;;5071974;28;20058;-83
2022/08/18 04:55:58;;;;;;;13.90;12.30;;;;;;;;;;5077659;28;20120;-83
2022/08/18 04:58:24;;;;;;;8.52;7.43;;;;;;;;;;5090875;28;20468;-83
2022/08/18 05:01:09;;;;;;;13.13;11.75;;;;;;;;;;5074198;28;20018;-83
2022/08/18 05:03:37;;;;;;;9.73;7.80;;;;;;;;;;5074226;28;20063;-83
2022/08/18 05:06:06;;;;;;;9.20;7.60;;;;;;;;;;5081498;28;20480;-83
2022/08/18 05:08:36;;;;;;;11.57;7.88;;;;;;;;;;5082736;28;20020;-83
2022/08/18 05:11:02;;;;;;;7.68;6.88;;;;;;;;;;5074162;28;20379;-83
2022/08/18 05:13:29;;;;;;;9.05;6.13;;;;;;;;;;5088493;28;20084;-82
2022/08/18 05:15:56;;;;;;;8.13;5.70;;;;;;;;;;5094330;28;20016;-82
2022/08/18 05:18:23;;;;;;;8.65;5.97;;;;;;;;;;5093601;28;20379;-83
2022/08/18 05:20:53;;;;;;;6.53;5.93;;;;;;;;;;5090546;28;20611;-83
2022/08/18 05:23:20;;;;;;;7.25;5.97;;;;;;;;;;5087283;28;20031;-82
2022/08/18 05:25:46;;;;;;;6.22;5.63;;;;;;;;;;5086020;28;20107;-80
2022/08/18 05:28:13;;;;;;;8.63;6.15;;;;;;;;;;5086030;28;20085;-83
2022/08/18 05:30:40;;;;;;;9.77;8.77;;;;;;;;;;5090470;28;20028;-82
2022/08/18 05:33:07;;;;;;;11.80;9.98;;;;;;;;;;5081256;28;20040;-82
2022/08/18 05:35:37;;;;;;;13.05;11.23;;;;;;;;;;5091152;28;20099;-81
2022/08/18 05:38:23;;;;;;;21.08;16.17;;;;;;;;;;5090368;28;20044;-82
2022/08/18 05:41:16;;;;;;;18.63;14.25;;;;;;;;;;5099381;28;20780;-82
2022/08/18 05:43:45;;;;;;;24.02;16.30;;;;;;;;;;5076097;28;20390;-80
2022/08/18 05:46:11;;;;;;;15.88;11.25;;;;;;;;;;5080066;28;20463;-81
2022/08/18 05:48:37;;;;;;;12.93;9.68;;;;;;;;;;5091644;28;20534;-83
2022/08/18 05:51:10;;;;;;;9.88;7.85;;;;;;;;;;5086430;28;20021;-82
2022/08/18 05:59:09;;;;;;;11.77;7.95;;;;;;;;;;5092877;28;20394;-81
2022/08/18 06:01:41;;;;;;;23.58;12.43;;;;;;;;;;5091125;28;20440;-81
2022/08/18 06:04:14;;;;;;;15.10;9.50;;;;;;;;;;5079033;28;20032;-80
2022/08/18 06:06:41;;;;;;;20.27;13.45;;;;;;;;;;5078481;28;20074;-80
2022/08/18 06:09:25;;;;;;;23.15;12.55;;;;;;;;;;5072624;28;20396;-82
2022/08/18 06:11:53;;;;;;;34.97;17.20;;;;;;;;;;5073324;28;20040;-79
2022/08/18 06:14:19;;;;;;;25.77;20.85;;;;;;;;;;5091852;28;20098;-83
2022/08/18 06:16:52;;;;;;;15.25;13.27;;;;;;;;;;5090284;28;20476;-81
2022/08/18 06:19:37;;;;;;;13.60;11.73;;;;;;;;;;5077077;28;20487;-81
2022/08/18 06:22:14;;;;;;;7.47;6.78;;;;;;;;;;5072264;28;20349;-82
2022/08/18 06:24:46;;;;;;;6.85;6.10;;;;;;;;;;5083435;28;20376;-81
2022/08/18 06:27:31;;;;;;;16.60;13.57;;;;;;;;;;5081532;28;20034;-81
2022/08/18 06:30:05;;;;;;;26.75;24.25;;;;;;;;;;5071903;28;20028;-81
2022/08/18 06:32:41;;;;;;;19.75;17.75;;;;;;;;;;5086695;28;20081;-80
2022/08/18 06:35:26;;;;;;;9.43;8.18;;;;;;;;;;5091463;28;20028;-81
2022/08/18 06:40:40;;;;;;;10.35;8.50;;;;;;;;;;5082155;28;20081;-83
2022/08/18 06:43:09;;;;;;;8.85;8.05;;;;;;;;;;5071386;28;20369;-82
2022/08/18 06:45:36;;;;;;;8.70;7.57;;;;;;;;;;5071908;28;20028;-81
2022/08/18 06:48:21;;;;;;;9.13;7.10;;;;;;;;;;5077479;28;20518;-81
2022/08/18 06:50:53;;;;;;;8.57;7.43;;;;;;;;;;5090978;28;20050;-82
2022/08/18 06:53:19;;;;;;;8.35;6.63;;;;;;;;;;5086001;28;20033;-81
2022/08/18 06:55:47;;;;;;;61.35;56.40;;;;;;;;;;5081851;28;20086;-81
2022/08/18 06:58:19;;;;;;;15.55;14.07;;;;;;;;;;5081455;28;20036;-81
2022/08/18 07:00:51;;;;;;;15.63;14.00;;;;;;;;;;5074478;28;20051;-84
2022/08/18 07:03:19;;;;;;;13.45;11.57;;;;;;;;;;5085602;28;20024;-82
2022/08/18 07:06:04;;;;;;;10.77;9.68;;;;;;;;;;5087629;28;20039;-79
2022/08/18 07:08:31;;;;;;;8.65;7.80;;;;;;;;;;5083676;28;20024;-80
2022/08/18 07:11:10;;;;;;;9.10;7.00;;;;;;;;;;5091365;28;20024;-80
2022/08/18 07:13:39;;;;;;;9.80;7.07;;;;;;;;;;5091787;28;20032;-82
2022/08/18 07:16:16;;;;;;;7.95;6.07;;;;;;;;;;5077676;28;20021;-81
2022/08/18 07:18:42;;;;;;;7.25;6.55;;;;;;;;;;5072358;28;20056;-82
2022/08/18 07:21:08;;;;;;;8.63;5.75;;;;;;;;;;5074369;28;20024;-80
2022/08/18 07:23:39;;;;;;;12.55;8.10;;;;;;;;;;5075554;28;20036;-81
2022/08/18 07:26:17;;;;;;;11.27;7.35;;;;;;;;;;5081641;28;20032;-82
2022/08/18 07:28:44;;;;;;;11.40;8.32;;;;;;;;;;5089496;28;20344;-81
2022/08/18 07:31:17;;;;;;;23.52;12.18;;;;;;;;;;5079927;28;20395;-82
2022/08/18 07:33:46;;;;;;;20.48;11.23;;;;;;;;;;5075656;28;20060;-78
2022/08/18 07:36:13;;;;;;;6.05;5.45;;;;;;;;;;5083445;28;20477;-81
2022/08/18 07:38:45;;;;;;;40.28;18.10;;;;;;;;;;5098199;28;20024;-79
2022/08/18 07:41:15;;;;;;;8.15;5.55;;;;;;;;;;5084449;28;20040;-79
2022/08/18 07:44:00;;;;;;;18.48;9.93;;;;;;;;;;5077625;28;20032;-80
2022/08/18 07:46:45;;;;;;;13.23;8.30;;;;;;;;;;5074929;28;20036;-80
2022/08/18 07:49:17;;;;;;;7.80;5.28;;;;;;;;;;5080934;28;20085;-80
2022/08/18 07:51:53;;;;;;;11.63;7.40;;;;;;;;;;5091488;28;20058;-77
2022/08/18 07:54:38;;;;;;;14.90;8.40;;;;;;;;;;5083156;28;20041;-79
2022/08/18 07:57:16;;;;;;;12.23;6.90;;;;;;;;;;5081215;28;20051;-79
2022/08/18 07:59:56;;;;;;;13.43;7.22;;;;;;;;;;5084471;28;20077;-81
2022/08/18 08:02:25;;;;;;;7.28;5.80;;;;;;;;;;5085037;28;20114;-79
2022/08/18 08:04:59;;;;;;;6.60;4.55;;;;;;;;;;5092645;28;20024;-78
2022/08/18 08:07:29;;;;;;;5.20;4.55;;;;;;;;;;5080789;28;20020;-80
2022/08/18 08:09:55;;;;;;;5.53;4.70;;;;;;;;;;5074660;28;20418;-77
2022/08/18 08:12:21;;;;;;;6.95;4.95;;;;;;;;;;5074306;28;20096;-81
2022/08/18 08:14:50;;;;;;;7.35;5.00;;;;;;;;;;5080204;28;20052;-81
2022/08/18 08:17:35;;;;;;;5.32;4.75;;;;;;;;;;5076990;28;20115;-78
2022/08/18 08:20:07;;;;;;;8.88;5.90;;;;;;;;;;5079742;28;20476;-78
2022/08/18 08:22:37;;;;;;;6.05;5.45;;;;;;;;;;5079730;28;20479;-79
2022/08/18 08:25:03;;;;;;;5.95;4.80;;;;;;;;;;5085724;28;20402;-82
2022/08/18 08:27:33;;;;;;;7.70;5.40;;;;;;;;;;5084806;28;20025;-80
2022/08/18 08:30:05;;;;;;;9.75;6.25;;;;;;;;;;5078259;28;20048;-81
2022/08/18 08:32:33;;;;;;;7.78;5.28;;;;;;;;;;5081027;28;20123;-81
2022/08/18 08:35:18;;;;;;;6.32;5.50;;;;;;;;;;5082862;28;20024;-84
2022/08/18 08:37:44;;;;;;;8.25;5.68;;;;;;;;;;5083635;28;20047;-82
2022/08/18 08:40:20;;;;;;;6.03;5.32;;;;;;;;;;5091125;28;20030;-80
2022/08/18 08:42:48;;;;;;;5.88;5.00;;;;;;;;;;5078042;28;20028;-80
2022/08/18 08:45:17;;;;;;;6.72;5.93;;;;;;;;;;5083787;28;20115;-79
2022/08/18 08:47:43;;;;;;;9.80;6.10;;;;;;;;;;5088667;28;20044;-81
2022/08/18 08:50:28;;;;;;;7.13;5.18;;;;;;;;;;5088899;28;20024;-82
2022/08/18 08:52:54;;;;;;;7.00;6.22;;;;;;;;;;5089102;28;20063;-77
2022/08/18 08:55:25;;;;;;;13.65;12.27;;;;;;;;;;5085489;28;20059;-79
2022/08/18 08:58:11;;;;;;;6.93;5.97;;;;;;;;;;5086201;28;20577;-81
2022/08/18 09:00:39;;;;;;;6.63;5.88;;;;;;;;;;5089820;28;20036;-81
2022/08/18 09:03:16;;;;;;;7.38;5.90;;;;;;;;;;5073966;28;20021;-79
2022/08/18 09:06:01;;;;;;;6.95;5.53;;;;;;;;;;5077199;28;20036;-80
2022/08/18 09:08:38;;;;;;;6.05;5.50;;;;;;;;;;5093264;28;20028;-80
2022/08/18 09:11:10;;;;;;;5.47;4.80;;;;;;;;;;5090505;28;20079;-80
2022/08/18 09:13:37;;;;;;;5.88;5.35;;;;;;;;;;5073947;28;20020;-80
2022/08/18 09:16:11;;;;;;;6.43;4.97;;;;;;;;;;5084727;28;20028;-81
2022/08/18 09:18:55;;;;;;;6.05;5.55;;;;;;;;;;5082847;28;20032;-80
2022/08/18 09:21:40;;;;;;;5.68;5.00;;;;;;;;;;5081694;28;20047;-84
2022/08/18 09:24:16;;;;;;;5.53;4.90;;;;;;;;;;5087838;28;20028;-80
2022/08/18 09:26:53;;;;;;;6.78;5.45;;;;;;;;;;5092966;28;20024;-82
2022/08/18 09:29:45;;;;;;;6.40;5.50;;;;;;;;;;5107377;28;20490;-83
2022/08/18 09:32:18;;;;;;;5.50;4.90;;;;;;;;;;5098282;28;20035;-79
2022/08/18 09:35:02;;;;;;;4.97;4.50;;;;;;;;;;5072893;28;20035;-83
2022/08/18 09:37:38;;;;;;;5.72;5.13;;;;;;;;;;5089653;28;20044;-78
2022/08/18 09:43:17;;;;;;;5.00;4.47;;;;;;;;;;5084361;28;20034;-82
2022/08/18 09:46:04;;;;;;;5.55;4.80;;;;;;;;;;5098716;28;20027;-80
2022/08/18 09:48:30;;;;;;;6.38;4.43;;;;;;;;;;5102182;28;20038;-82
2022/08/18 09:50:57;;;;;;;4.95;4.45;;;;;;;;;;5085211;28;20046;-82
2022/08/18 09:53:32;;;;;;;5.07;4.45;;;;;;;;;;5090166;28;20039;-81
2022/08/18 09:55:58;;;;;;;5.13;4.07;;;;;;;;;;5090190;28;20035;-81
2022/08/18 09:58:25;;;;;;;4.82;4.32;;;;;;;;;;5103758;28;20023;-77
2022/08/18 10:01:09;;;;;;;4.72;3.78;;;;;;;;;;5081475;28;20140;-81
2022/08/18 10:03:35;;;;;;;5.25;4.45;;;;;;;;;;5080061;28;20479;-82
2022/08/18 10:06:12;;;;;;;4.45;4.05;;;;;;;;;;5076205;28;20024;-82
2022/08/18 10:08:41;;;;;;;5.70;4.57;;;;;;;;;;5077345;28;20116;-83
2022/08/18 10:11:07;;;;;;;4.22;3.58;;;;;;;;;;5085263;28;20502;-82
2022/08/18 10:13:52;;;;;;;7.95;4.43;;;;;;;;;;5070719;28;20032;-83
2022/08/18 10:16:24;;;;;;;5.03;4.20;;;;;;;;;;5086379;28;20439;-87
2022/08/18 10:19:09;;;;;;;6.82;5.53;;;;;;;;;;5072207;28;20025;-82
2022/08/18 10:21:57;;;;;;;4.35;3.92;;;;;;;;;;5071717;28;20031;-82
2022/08/18 10:24:42;;;;;;;5.93;4.80;;;;;;;;;;5075257;28;20031;-83
2022/08/18 10:27:11;;;;;;;12.98;4.25;;;;;;;;;;5075570;28;20040;-85
2022/08/18 10:29:40;;;;;;;4.07;3.60;;;;;;;;;;5079641;28;20032;-78
2022/08/18 10:32:07;;;;;;;4.40;3.92;;;;;;;;;;5079365;28;20050;-79
2022/08/18 10:34:38;;;;;;;4.40;3.95;;;;;;;;;;5076256;28;20025;-78
2022/08/18 10:37:11;;;;;;;4.20;3.80;;;;;;;;;;5086061;28;20168;-83
2022/08/18 10:39:37;;;;;;;5.30;4.90;;;;;;;;;;5075482;28;20048;-71
2022/08/18 10:42:04;;;;;;;4.93;3.83;;;;;;;;;;5075965;28;20028;-85
2022/08/18 10:44:31;;;;;;;4.43;3.88;;;;;;;;;;5078173;28;20028;-82
2022/08/18 10:46:58;;;;;;;3.60;3.30;;;;;;;;;;5076830;28;20403;-83
2022/08/18 10:49:25;;;;;;;4.32;3.47;;;;;;;;;;5080693;28;20166;-81
2022/08/18 10:52:05;;;;;;;4.97;4.55;;;;;;;;;;5078111;28;20379;-81
2022/08/18 10:54:51;;;;;;;4.13;3.60;;;;;;;;;;5081172;28;20067;-81
2022/08/18 10:57:36;;;;;;;4.53;3.35;;;;;;;;;;5080443;28;20036;-84
2022/08/18 11:00:28;;;;;;;4.30;3.75;;;;;;;;;;5083311;28;20020;-78
2022/08/18 11:03:13;;;;;;;3.38;3.10;;;;;;;;;;5058646;28;20100;-84
2022/08/18 11:05:40;;;;;;;3.70;3.38;;;;;;;;;;5081391;28;20032;-67
2022/08/18 11:08:12;;;;;;;3.60;3.30;;;;;;;;;;5078397;28;20087;-79
2022/08/18 11:10:53;;;;;;;4.70;4.03;;;;;;;;;;5085852;28;20027;-81
2022/08/18 11:13:32;;;;;;;3.25;2.95;;;;;;;;;;5090363;28;20035;-80
2022/08/18 11:16:11;;;;;;;4.60;3.67;;;;;;;;;;5083908;28;20035;-80
2022/08/18 11:18:41;;;;;;;4.70;3.28;;;;;;;;;;5075337;28;20028;-78
2022/08/18 11:21:26;;;;;;;5.75;4.85;;;;;;;;;;5086020;28;20096;-84
2022/08/18 11:24:22;;;;;;;4.57;3.92;;;;;;;;;;5095215;28;20563;-79
2022/08/18 11:26:50;;;;;;;5.05;3.38;;;;;;;;;;5076091;28;20043;-81
2022/08/18 11:29:35;;;;;;;3.50;3.20;;;;;;;;;;5094813;28;20478;-79
2022/08/18 11:32:09;;;;;;;4.82;4.38;;;;;;;;;;5103948;28;20051;-79
2022/08/18 11:34:35;;;;;;;;;;;;;;;;;;5106437;28;20118;-83
2022/08/18 11:37:03;;;;;;;6.80;4.78;;;;;;;;;;5097009;28;20471;-79
2022/08/18 11:39:30;;;;;;;5.43;4.05;;;;;;;;;;5105260;28;20034;-80
2022/08/18 11:41:56;;;;;;;5.30;3.85;;;;;;;;;;5103520;28;20028;-80
2022/08/18 11:44:24;;;;;;;3.35;2.80;;;;;;;;;;5100644;28;20027;-79
2022/08/18 11:46:56;;;;;;;4.32;3.88;;;;;;;;;;5095276;28;20027;-79
2022/08/18 11:49:41;;;;;;;3.58;3.28;;;;;;;;;;5099112;28;20055;-84
2022/08/18 11:52:25;;;;;;;5.38;3.42;;;;;;;;;;5096158;28;20091;-81
2022/08/18 11:54:52;;;;;;;4.18;3.88;;;;;;;;;;5098932;28;20032;-81
2022/08/18 11:57:38;;;;;;;9.02;8.15;;;;;;;;;;5100911;28;20024;-81
2022/08/18 12:00:23;;;;;;;6.75;4.68;;;;;;;;;;5089220;28;20497;-82
2022/08/18 12:03:00;;;;;;;5.30;4.32;;;;;;;;;;5085371;28;20446;-82
2022/08/18 12:05:26;;;;;;;4.72;4.18;;;;;;;;;;5093423;28;20027;-81
2022/08/18 12:07:52;;;;;;;2.80;2.53;;;;;;;;;;5094580;28;20050;-81
2022/08/18 12:10:19;;;;;;;3.20;2.90;;;;;;;;;;5094232;28;20510;-79
2022/08/18 12:12:49;;;;;;;3.45;2.72;;;;;;;;;;5104645;28;20028;-81
2022/08/18 12:15:16;;;;;;;3.95;2.72;;;;;;;;;;5099579;28;20027;-80
2022/08/18 12:17:44;;;;;;;3.90;3.60;;;;;;;;;;5104887;28;20027;-78
2022/08/18 12:20:10;;;;;;;4.78;3.55;;;;;;;;;;5104103;28;20497;-79
2022/08/18 12:22:38;;;;;;;6.30;3.47;;;;;;;;;;5102529;28;20092;-78
2022/08/18 12:25:06;;;;;;;4.38;3.90;;;;;;;;;;5092608;28;20032;-77
2022/08/18 12:27:32;;;;;;;12.95;10.80;;;;;;;;;;5103443;28;20089;-78
2022/08/18 12:30:00;;;;;;;28.70;15.73;;;;;;;;;;5105025;28;20398;-78
2022/08/18 12:32:27;;;;;;;14.43;11.18;;;;;;;;;;5102395;28;20024;-78
2022/08/18 12:34:54;;;;;;;6.20;4.50;;;;;;;;;;5102756;28;20126;-81
2022/08/18 12:37:22;;;;;;;8.02;7.22;;;;;;;;;;5105354;28;20360;-78
2022/08/18 12:39:49;;;;;;;14.15;12.77;;;;;;;;;;5103401;28;20479;-77
2022/08/18 12:42:15;;;;;;;12.60;11.30;;;;;;;;;;5102468;28;20024;-77
2022/08/18 12:44:41;;;;;;;33.60;30.70;;;;;;;;;;5095616;28;20030;-77
2022/08/18 12:47:11;;;;;;;4.47;4.00;;;;;;;;;;5103749;28;20051;-77
2022/08/18 12:49:37;;;;;;;3.65;3.03;;;;;;;;;;5102209;28;20020;-79
2022/08/18 12:52:03;;;;;;;4.43;4.03;;;;;;;;;;5103920;28;20034;-78
2022/08/18 12:54:35;;;;;;;5.35;3.35;;;;;;;;;;5103475;28;20393;-80
2022/08/18 12:57:02;;;;;;;3.17;2.90;;;;;;;;;;5104222;28;20335;-78
2022/08/18 12:59:28;;;;;;;4.57;3.20;;;;;;;;;;5101225;28;20028;-80
2022/08/18 13:01:54;;;;;;;3.88;3.28;;;;;;;;;;5086761;28;20028;-77
2022/08/18 13:04:20;;;;;;;4.53;3.95;;;;;;;;;;5095505;28;20042;-78
2022/08/18 13:06:49;;;;;;;3.85;3.47;;;;;;;;;;5102524;28;20106;-78
2022/08/18 13:09:15;;;;;;;4.20;3.80;;;;;;;;;;5093336;28;20035;-79
2022/08/18 13:11:41;;;;;;;4.75;4.32;;;;;;;;;;5093282;28;20024;-80
2022/08/18 13:14:07;;;;;;;5.00;4.50;;;;;;;;;;5093326;28;20479;-80
2022/08/18 13:16:35;;;;;;;4.82;4.30;;;;;;;;;;5094075;28;20481;-79
2022/08/18 13:19:01;;;;;;;5.35;4.35;;;;;;;;;;5105254;28;20032;-79
2022/08/18 13:21:27;;;;;;;4.40;3.83;;;;;;;;;;5113156;28;20051;-80
2022/08/18 13:23:54;;;;;;;4.72;3.25;;;;;;;;;;5113504;28;20099;-80
2022/08/18 13:26:39;;;;;;;3.00;2.60;;;;;;;;;;5113541;28;20023;-77
2022/08/18 13:29:05;;;;;;;5.53;2.92;;;;;;;;;;5113428;28;20098;-79
2022/08/18 13:31:32;;;;;;;5.38;2.35;;;;;;;;;;5083746;28;20036;-79
2022/08/18 13:33:58;;;;;;;3.50;2.33;;;;;;;;;;5073192;28;20153;-79
2022/08/18 13:36:25;;;;;;;4.43;3.05;;;;;;;;;;5083426;28;20028;-79
2022/08/18 13:38:53;;;;;;;4.20;2.83;;;;;;;;;;5073253;28;20075;-76
2022/08/18 13:41:19;;;;;;;4.78;2.75;;;;;;;;;;5073411;28;20052;-79
2022/08/18 13:43:46;;;;;;;2.83;2.38;;;;;;;;;;5073312;28;20028;-80
2022/08/18 13:46:14;;;;;;;5.18;2.47;;;;;;;;;;5081916;28;20141;-78
2022/08/18 13:48:40;;;;;;;3.28;2.70;;;;;;;;;;5083083;28;20090;-78
2022/08/18 13:51:08;;;;;;;3.50;2.33;;;;;;;;;;5073424;28;20029;-81
2022/08/18 13:53:36;;;;;;;2.80;2.47;;;;;;;;;;5073085;28;20032;-80
2022/08/18 13:56:02;;;;;;;3.30;2.80;;;;;;;;;;5072910;28;20396;-77
2022/08/18 13:58:28;;;;;;;5.68;2.20;;;;;;;;;;5073027;28;20492;-79
2022/08/18 14:00:56;;;;;;;3.13;2.72;;;;;;;;;;5077962;28;20077;-78
2022/08/18 14:03:23;;;;;;;4.15;3.22;;;;;;;;;;5082840;28;20597;-77
2022/08/18 14:05:57;;;;;;;5.45;3.58;;;;;;;;;;5080054;28;20032;-79
2022/08/18 14:08:23;;;;;;;3.28;2.92;;;;;;;;;;5081640;28;20166;-79
2022/08/18 14:10:55;;;;;;;4.47;2.75;;;;;;;;;;5073079;28;20028;-78
2022/08/18 14:13:22;;;;;;;5.30;3.13;;;;;;;;;;5075306;28;20064;-81
2022/08/18 14:15:48;;;;;;;4.45;3.33;;;;;;;;;;5073884;28;20140;-78
2022/08/18 14:18:14;;;;;;;4.40;2.85;;;;;;;;;;5072630;28;20033;-78
2022/08/18 14:28:55;;;;;;;4.20;3.22;;;;;;;;;;5088516;28;20621;-77
2022/08/18 14:31:21;;;;;;;4.40;3.45;;;;;;;;;;5094527;28;20031;-78
2022/08/18 14:33:47;;;;;;;5.40;3.50;;;;;;;;;;5097018;28;20024;-79
2022/08/18 14:36:14;;;;;;;4.53;3.80;;;;;;;;;;5098893;28;20534;-78
2022/08/18 14:38:40;;;;;;;7.30;3.97;;;;;;;;;;5101226;28;20024;-78
2022/08/18 14:41:08;;;;;;;5.43;3.90;;;;;;;;;;5097847;28;20470;-81
2022/08/18 14:43:37;;;;;;;5.45;4.20;;;;;;;;;;5106463;28;20028;-81
2022/08/18 14:46:04;;;;;;;6.95;4.78;;;;;;;;;;5105575;28;20036;-79
2022/08/18 14:48:31;;;;;;;4.50;3.38;;;;;;;;;;5106573;28;20055;-80
2022/08/18 14:50:58;;;;;;;5.07;3.58;;;;;;;;;;5114674;28;20024;-81
2022/08/18 14:53:29;;;;;;;5.10;3.80;;;;;;;;;;5093717;28;20073;-78
2022/08/18 14:55:55;;;;;;;4.88;3.92;;;;;;;;;;5096743;28;20534;-81
2022/08/18 14:58:27;;;;;;;3.67;3.30;;;;;;;;;;5091530;28;20113;-81
2022/08/18 15:01:06;;;;;;;7.35;3.55;;;;;;;;;;5087085;28;20111;-78
2022/08/18 15:03:33;;;;;;;6.53;4.03;;;;;;;;;;5081799;28;20050;-77
2022/08/18 15:06:00;;;;;;;5.82;3.53;;;;;;;;;;5085869;28;20464;-80
2022/08/18 15:08:26;;;;;;;3.92;3.60;;;;;;;;;;5096447;28;20028;-82
2022/08/18 15:10:52;;;;;;;5.97;4.97;;;;;;;;;;5090311;28;20398;-82
2022/08/18 15:13:18;;;;;;;5.55;4.30;;;;;;;;;;5076007;28;20025;-82
2022/08/18 15:15:44;;;;;;;4.50;3.65;;;;;;;;;;5085568;28;20036;-79
2022/08/18 15:18:11;;;;;;;4.85;3.35;;;;;;;;;;5077884;28;20033;-81
2022/08/18 15:25:40;;;;;;;4.40;3.97;;;;;;;;;;5076134;28;20411;-80
2022/08/18 15:26:09;;;;;;;3.45;3.15;;;;;;;;;;5075964;28;20032;-80
2022/08/18 15:28:37;;;;;;;4.93;3.47;;;;;;;;;;5077980;28;20028;-80
2022/08/18 15:31:03;;;;;;;5.78;4.03;;;;;;;;;;5082558;28;20032;-80